Time;durP1;ratioP1;P1;durP2;ratioP2;P2;SDS_P1;SDS_P2;PMS_P1;PMS_P2;Temp;Humidity;BMP_temperature;BMP_pressure;BME280_temperature;BME280_humidity;BME280_pressure;Samples;Min_cycle;Max_cycle;Signal;HPM_P1;HPM_P2
2023/02/11 00:01:29;;;;;;;51.17;26.97;;;5.80;99.90;;;;;;5055357;28;20241;-84
2023/02/11 00:03:57;;;;;;;51.60;28.10;;;6.00;99.90;;;;;;5056548;28;20205;-85
2023/02/11 00:06:24;;;;;;;54.93;29.17;;;5.90;99.90;;;;;;5055333;28;20836;-85
2023/02/11 00:08:51;;;;;;;53.77;28.70;;;5.90;99.90;;;;;;5055096;28;20282;-85
2023/02/11 00:11:20;;;;;;;55.77;28.60;;;5.90;99.90;;;;;;5055426;28;20247;-85
2023/02/11 00:13:49;;;;;;;54.03;29.03;;;5.90;99.90;;;;;;5054194;28;20582;-85
2023/02/11 00:16:18;;;;;;;55.17;29.53;;;5.90;99.90;;;;;;5055352;28;20191;-86
2023/02/11 00:18:45;;;;;;;52.93;28.57;;;5.90;99.90;;;;;;5054772;28;20547;-85
2023/02/11 00:21:14;;;;;;;53.03;29.93;;;5.90;99.90;;;;;;5054641;28;20203;-85
2023/02/11 00:23:41;;;;;;;56.27;30.37;;;5.90;99.90;;;;;;5055935;28;20195;-85
2023/02/11 00:26:13;;;;;;;58.57;28.57;;;5.90;99.90;;;;;;5055101;28;20201;-86
2023/02/11 00:28:39;;;;;;;58.73;29.97;;;5.90;99.90;;;;;;5055530;28;20198;-85
2023/02/11 00:31:08;;;;;;;63.17;30.63;;;5.90;99.90;;;;;;5054895;28;20682;-85
2023/02/11 00:33:35;;;;;;;53.13;29.87;;;5.90;99.90;;;;;;5055673;28;20229;-85
2023/02/11 00:36:04;;;;;;;57.63;30.33;;;5.90;99.90;;;;;;5055175;28;20237;-85
2023/02/11 00:38:31;;;;;;;58.40;29.90;;;5.90;99.90;;;;;;5056774;28;20238;-85
2023/02/11 00:40:58;;;;;;;59.03;29.87;;;5.90;99.90;;;;;;5055801;28;20211;-85
2023/02/11 00:43:25;;;;;;;59.20;30.37;;;6.00;99.90;;;;;;5053655;28;20267;-86
2023/02/11 00:45:52;;;;;;;58.73;31.70;;;6.00;99.90;;;;;;5054896;28;20587;-85
2023/02/11 00:48:20;;;;;;;59.90;32.10;;;6.00;99.90;;;;;;5055737;28;20218;-85
2023/02/11 00:50:46;;;;;;;57.00;31.23;;;6.00;99.90;;;;;;5055309;28;20225;-85
2023/02/11 00:53:13;;;;;;;57.10;31.10;;;6.00;99.90;;;;;;5055384;28;20226;-85
2023/02/11 00:55:40;;;;;;;56.93;30.87;;;6.00;99.90;;;;;;5055283;28;20207;-85
2023/02/11 00:58:07;;;;;;;56.50;29.90;;;5.90;99.90;;;;;;5055955;28;20193;-85
2023/02/11 01:00:33;;;;;;;56.20;30.07;;;6.00;99.90;;;;;;5054689;28;20219;-85
2023/02/11 01:03:00;;;;;;;57.30;30.57;;;6.00;99.90;;;;;;5056643;28;20223;-85
2023/02/11 01:05:29;;;;;;;58.73;30.47;;;6.00;99.90;;;;;;5059912;28;20643;-85
2023/02/11 01:07:55;;;;;;;62.57;32.60;;;6.00;99.90;;;;;;5059033;28;20201;-85
2023/02/11 01:10:22;;;;;;;55.97;30.00;;;6.00;99.90;;;;;;5058702;28;20655;-85
2023/02/11 01:12:49;;;;;;;56.20;30.30;;;6.00;99.90;;;;;;5060406;28;20223;-85
2023/02/11 01:15:18;;;;;;;58.53;32.40;;;6.00;99.90;;;;;;5058319;28;20202;-85
2023/02/11 01:17:45;;;;;;;57.70;31.53;;;5.90;99.90;;;;;;5058695;28;20266;-85
2023/02/11 01:20:16;;;;;;;54.10;28.33;;;5.90;99.90;;;;;;5057982;28;20226;-86
2023/02/11 01:22:44;;;;;;;58.40;31.20;;;5.90;99.90;;;;;;5058162;28;20290;-86
2023/02/11 01:25:12;;;;;;;59.10;31.90;;;6.00;99.90;;;;;;5059494;28;20195;-85
2023/02/11 01:27:38;;;;;;;60.10;31.10;;;6.00;99.90;;;;;;5060618;28;20555;-84
2023/02/11 01:30:07;;;;;;;54.10;31.67;;;6.00;99.90;;;;;;5059288;28;20195;-86
2023/02/11 01:32:35;;;;;;;58.83;31.97;;;6.00;99.90;;;;;;5056960;28;20568;-86
2023/02/11 01:35:02;;;;;;;58.87;31.00;;;6.00;99.90;;;;;;5059110;28;20227;-85
2023/02/11 01:37:28;;;;;;;55.17;31.07;;;6.00;99.90;;;;;;5059161;28;20207;-84
2023/02/11 01:39:57;;;;;;;56.40;32.37;;;6.00;99.90;;;;;;5060551;28;20920;-84
2023/02/11 01:42:24;;;;;;;55.43;30.50;;;6.00;99.90;;;;;;5058877;28;20218;-85
2023/02/11 01:44:53;;;;;;;56.30;32.57;;;6.00;99.90;;;;;;5056802;28;20191;-85
2023/02/11 01:47:20;;;;;;;55.40;31.87;;;6.00;99.90;;;;;;5057851;28;20203;-85
2023/02/11 01:49:50;;;;;;;63.20;35.00;;;6.00;99.90;;;;;;5056988;28;20197;-84
2023/02/11 01:52:23;;;;;;;56.87;31.20;;;5.90;99.90;;;;;;5057994;28;20221;-85
2023/02/11 01:57:43;;;;;;;61.07;32.33;;;6.00;99.90;;;;;;5058661;28;20201;-84
2023/02/11 02:00:13;;;;;;;57.40;32.03;;;6.00;99.90;;;;;;5055773;28;20636;-85
2023/02/11 02:02:46;;;;;;;61.23;33.27;;;5.90;99.90;;;;;;5041563;28;20219;-85
2023/02/11 02:05:21;;;;;;;59.20;32.07;;;5.90;99.90;;;;;;5058564;28;20705;-85
2023/02/11 02:07:55;;;;;;;57.87;31.70;;;6.00;99.90;;;;;;5056644;28;20658;-85
2023/02/11 02:10:26;;;;;;;59.17;30.93;;;5.90;99.90;;;;;;5056314;28;20207;-85
2023/02/11 02:12:55;;;;;;;56.43;30.97;;;5.90;99.90;;;;;;5034434;28;20232;-85
2023/02/11 02:15:29;;;;;;;58.57;31.90;;;6.00;99.90;;;;;;5051079;28;20567;-86
2023/02/11 02:18:17;;;;;;;59.93;31.93;;;5.90;99.90;;;;;;5057768;28;20202;-85
2023/02/11 02:21:16;;;;;;;60.37;32.40;;;5.90;99.90;;;;;;5063202;28;20330;-85
2023/02/11 02:24:13;;;;;;;57.93;31.00;;;5.80;99.90;;;;;;5050033;28;20288;-85
2023/02/11 02:27:02;;;;;;;59.57;31.93;;;5.90;99.90;;;;;;5055234;28;20207;-85
2023/02/11 02:29:56;;;;;;;61.30;32.87;;;5.90;99.90;;;;;;5057505;28;20214;-84
2023/02/11 02:32:39;;;;;;;64.30;33.27;;;5.90;99.90;;;;;;5028781;28;20672;-85
2023/02/11 02:35:16;;;;;;;62.03;34.43;;;5.90;99.90;;;;;;5051884;28;20219;-85
2023/02/11 02:37:47;;;;;;;61.00;31.23;;;5.90;99.90;;;;;;5056843;28;20551;-84
2023/02/11 02:40:21;;;;;;;58.37;32.37;;;5.90;99.90;;;;;;5058280;28;20209;-85
2023/02/11 02:42:49;;;;;;;62.50;33.93;;;5.90;99.90;;;;;;5057324;28;20538;-85
2023/02/11 02:45:16;;;;;;;59.37;32.33;;;5.80;99.90;;;;;;5057431;28;20209;-85
2023/02/11 02:47:44;;;;;;;60.00;33.40;;;5.80;99.90;;;;;;5057597;28;20569;-85
2023/02/11 02:50:15;;;;;;;61.63;31.70;;;5.90;99.90;;;;;;5058608;28;20198;-85
2023/02/11 02:52:50;;;;;;;60.37;33.10;;;5.90;99.90;;;;;;5057922;28;20231;-85
2023/02/11 02:55:48;;;;;;;59.10;31.70;;;5.90;99.90;;;;;;5056652;28;20218;-85
2023/02/11 02:58:35;;;;;;;58.93;31.50;;;5.90;99.90;;;;;;5054403;28;20195;-85
2023/02/11 03:01:13;;;;;;;57.03;31.17;;;5.90;99.90;;;;;;5055681;28;20218;-85
2023/02/11 03:03:48;;;;;;;60.43;32.07;;;5.90;99.90;;;;;;5069410;28;20313;-85
2023/02/11 03:06:23;;;;;;;62.80;33.47;;;5.90;99.90;;;;;;5062842;28;20198;-85
2023/02/11 03:08:55;;;;;;;61.20;32.87;;;5.90;99.90;;;;;;5056635;28;20206;-86
2023/02/11 03:11:24;;;;;;;57.43;31.53;;;6.00;99.90;;;;;;5056930;28;20219;-85
2023/02/11 03:13:52;;;;;;;59.03;30.53;;;5.90;99.90;;;;;;5056756;28;20226;-85
2023/02/11 03:16:22;;;;;;;57.23;31.13;;;6.00;99.90;;;;;;5057091;28;20574;-85
2023/02/11 03:18:56;;;;;;;59.37;32.60;;;5.90;99.90;;;;;;5057387;28;20293;-85
2023/02/11 03:21:25;;;;;;;57.80;31.17;;;5.90;99.90;;;;;;5055309;28;20233;-85
2023/02/11 03:23:55;;;;;;;59.03;30.47;;;5.90;99.90;;;;;;5056429;28;20221;-85
2023/02/11 03:26:28;;;;;;;56.67;32.37;;;5.90;99.90;;;;;;5057420;28;20246;-84
2023/02/11 03:29:02;;;;;;;59.17;32.33;;;6.00;99.90;;;;;;5068742;28;20198;-85
2023/02/11 03:31:36;;;;;;;57.47;31.30;;;5.90;99.90;;;;;;5056616;28;20221;-86
2023/02/11 03:34:09;;;;;;;57.10;29.97;;;5.90;99.90;;;;;;5050731;28;20254;-85
2023/02/11 03:36:44;;;;;;;56.17;29.90;;;6.00;99.90;;;;;;5057878;28;20195;-85
2023/02/11 03:39:13;;;;;;;52.07;29.00;;;5.90;99.90;;;;;;5057557;28;20277;-85
2023/02/11 03:41:42;;;;;;;57.03;30.33;;;5.90;99.90;;;;;;5057690;28;20235;-85
2023/02/11 03:44:12;;;;;;;54.47;30.73;;;5.90;99.90;;;;;;5055928;28;20203;-86
2023/02/11 03:46:41;;;;;;;55.43;31.07;;;5.90;99.90;;;;;;5056736;28;20655;-85
2023/02/11 03:49:13;;;;;;;51.93;28.53;;;5.90;99.90;;;;;;5056677;28;20238;-85
2023/02/11 03:51:40;;;;;;;54.67;29.67;;;5.90;99.90;;;;;;5057789;28;20218;-85
2023/02/11 03:54:14;;;;;;;57.43;30.93;;;5.90;99.90;;;;;;5056065;28;20278;-87
2023/02/11 03:56:46;;;;;;;57.70;32.10;;;5.90;99.90;;;;;;5067870;28;20210;-85
2023/02/11 03:59:13;;;;;;;50.47;29.37;;;5.90;99.90;;;;;;5077341;28;20210;-85
2023/02/11 04:01:40;;;;;;;52.17;29.23;;;5.90;99.90;;;;;;5064639;28;20261;-85
2023/02/11 04:04:08;;;;;;;55.90;29.30;;;5.90;99.90;;;;;;5057277;28;20564;-85
2023/02/11 04:06:35;;;;;;;54.40;30.97;;;5.90;99.90;;;;;;5055498;28;20217;-85
2023/02/11 04:09:02;;;;;;;52.77;30.10;;;5.90;99.90;;;;;;5057192;28;20191;-84
2023/02/11 04:11:29;;;;;;;55.73;30.10;;;5.80;99.90;;;;;;5056067;28;20241;-85
2023/02/11 04:13:55;;;;;;;53.57;31.07;;;5.90;99.90;;;;;;5055426;28;20213;-85
2023/02/11 04:16:22;;;;;;;51.23;29.07;;;5.90;99.90;;;;;;5056289;28;20291;-85
2023/02/11 04:18:49;;;;;;;57.63;30.13;;;5.90;99.90;;;;;;5057009;28;20291;-85
2023/02/11 04:21:17;;;;;;;54.23;30.93;;;5.90;99.90;;;;;;5056350;28;20218;-85
2023/02/11 04:23:44;;;;;;;53.90;28.57;;;5.90;99.90;;;;;;5055755;28;20210;-85
2023/02/11 04:26:11;;;;;;;56.10;32.10;;;5.90;99.90;;;;;;5058219;28;20203;-85
2023/02/11 04:28:38;;;;;;;53.60;30.70;;;5.90;99.90;;;;;;5064466;28;20202;-85
2023/02/11 04:31:05;;;;;;;55.53;29.17;;;5.90;99.90;;;;;;5056155;28;20212;-85
2023/02/11 04:33:32;;;;;;;52.83;31.10;;;5.80;99.90;;;;;;5055680;28;20198;-86
2023/02/11 04:35:58;;;;;;;54.40;30.37;;;5.80;99.90;;;;;;5054692;28;20215;-85
2023/02/11 04:38:27;;;;;;;57.17;31.77;;;5.90;99.90;;;;;;5054409;28;20281;-85
2023/02/11 04:40:53;;;;;;;54.07;30.37;;;5.80;99.90;;;;;;5056576;28;20199;-85
2023/02/11 04:43:20;;;;;;;53.33;29.70;;;5.80;99.90;;;;;;5056638;28;20223;-85
2023/02/11 04:45:47;;;;;;;53.67;31.13;;;5.80;99.90;;;;;;5054764;28;20217;-85
2023/02/11 04:48:14;;;;;;;52.87;29.53;;;5.80;99.90;;;;;;5056342;28;20211;-85
2023/02/11 04:50:41;;;;;;;51.67;29.10;;;5.70;99.90;;;;;;5055199;28;20501;-85
2023/02/11 04:53:08;;;;;;;53.70;30.10;;;5.60;99.90;;;;;;5055454;28;20218;-85
2023/02/11 04:55:36;;;;;;;51.83;29.57;;;5.80;99.90;;;;;;5055372;28;20313;-85
2023/02/11 04:58:03;;;;;;;52.67;29.63;;;5.70;99.90;;;;;;5055487;28;20202;-85
2023/02/11 05:00:30;;;;;;;52.70;29.90;;;5.60;99.90;;;;;;5054908;28;20638;-85
2023/02/11 05:02:57;;;;;;;51.43;28.63;;;5.80;99.90;;;;;;5055803;28;20233;-84
2023/02/11 05:05:23;;;;;;;50.60;28.60;;;5.60;99.90;;;;;;5057918;28;20266;-85
2023/02/11 05:07:50;;;;;;;53.57;28.97;;;5.60;99.90;;;;;;5055226;28;20214;-84
2023/02/11 05:10:17;;;;;;;50.90;27.60;;;5.60;99.90;;;;;;5063131;28;20579;-85
2023/02/11 05:12:48;;;;;;;49.03;28.20;;;5.60;99.90;;;;;;5052840;28;20217;-85
2023/02/11 05:15:14;;;;;;;45.07;28.10;;;5.60;99.90;;;;;;5054118;28;20226;-85
2023/02/11 05:17:41;;;;;;;45.50;27.07;;;5.60;99.90;;;;;;5056209;28;20290;-85
2023/02/11 05:20:09;;;;;;;43.10;26.10;;;5.60;99.90;;;;;;5056046;28;20207;-84
2023/02/11 05:22:36;;;;;;;42.23;26.50;;;5.60;99.90;;;;;;5040476;28;20219;-85
2023/02/11 05:25:03;;;;;;;46.07;27.20;;;5.70;99.90;;;;;;5055385;28;20199;-85
2023/02/11 05:27:30;;;;;;;43.57;26.30;;;5.70;99.90;;;;;;5055020;28;20199;-85
2023/02/11 05:29:58;;;;;;;40.73;24.17;;;5.70;99.90;;;;;;5056136;28;20202;-85
2023/02/11 05:32:25;;;;;;;39.37;24.67;;;5.70;99.90;;;;;;5056650;28;20226;-85
2023/02/11 05:34:51;;;;;;;40.30;24.93;;;5.70;99.90;;;;;;5051528;28;20225;-84
2023/02/11 05:37:18;;;;;;;43.87;23.27;;;5.70;99.90;;;;;;5056915;28;20214;-85
2023/02/11 05:39:45;;;;;;;39.07;23.83;;;5.80;99.90;;;;;;5057515;28;20199;-84
2023/02/11 05:42:13;;;;;;;42.10;23.70;;;5.90;99.90;;;;;;5055771;28;20221;-84
2023/02/11 05:44:39;;;;;;;41.57;22.83;;;5.80;99.90;;;;;;5058351;28;20203;-85
2023/02/11 05:47:08;;;;;;;42.83;24.00;;;5.90;99.90;;;;;;5056293;28;20289;-85
2023/02/11 05:49:35;;;;;;;43.80;24.53;;;5.90;99.90;;;;;;5059295;28;20207;-86
2023/02/11 05:52:02;;;;;;;43.77;24.60;;;5.90;99.90;;;;;;5069032;28;20564;-85
2023/02/11 05:54:29;;;;;;;39.23;22.53;;;5.90;99.90;;;;;;5062753;28;20209;-85
2023/02/11 05:56:55;;;;;;;43.17;25.37;;;6.00;99.90;;;;;;5063092;28;20203;-85
2023/02/11 05:59:23;;;;;;;42.27;24.83;;;6.00;99.90;;;;;;5062595;28;20205;-85
2023/02/11 06:01:50;;;;;;;39.00;23.67;;;6.00;99.90;;;;;;5062337;28;20238;-84
2023/02/11 06:04:18;;;;;;;43.80;25.20;;;6.00;99.90;;;;;;5061910;28;20202;-85
2023/02/11 06:06:45;;;;;;;43.73;27.10;;;6.00;99.90;;;;;;5063071;28;20298;-84
2023/02/11 06:09:12;;;;;;;40.83;25.40;;;6.00;99.90;;;;;;5061462;28;20581;-85
2023/02/11 06:11:39;;;;;;;44.87;25.90;;;6.00;99.90;;;;;;5060971;28;20291;-85
2023/02/11 06:14:06;;;;;;;44.93;25.87;;;6.10;99.90;;;;;;5061395;28;20205;-84
2023/02/11 06:16:32;;;;;;;44.50;26.40;;;6.10;99.90;;;;;;5061362;28;20231;-85
2023/02/11 06:18:59;;;;;;;42.10;25.80;;;6.00;99.90;;;;;;5065052;28;20209;-85
2023/02/11 06:21:27;;;;;;;44.10;26.30;;;6.10;99.90;;;;;;5062578;28;20251;-85
2023/02/11 06:23:54;;;;;;;39.70;25.90;;;6.10;99.90;;;;;;5068474;28;20206;-85
2023/02/11 06:26:23;;;;;;;43.40;25.87;;;6.10;99.90;;;;;;5064439;28;20260;-85
2023/02/11 06:28:50;;;;;;;45.37;26.20;;;6.10;99.90;;;;;;5056036;28;20209;-85
2023/02/11 06:31:16;;;;;;;45.27;26.13;;;6.10;99.90;;;;;;5060602;28;20289;-84
2023/02/11 06:33:43;;;;;;;45.33;25.33;;;6.10;99.90;;;;;;5060577;28;20205;-82
2023/02/11 06:36:14;;;;;;;46.60;27.30;;;6.20;99.90;;;;;;5060434;28;20233;-86
2023/02/11 06:38:42;;;;;;;49.70;27.73;;;6.20;99.90;;;;;;5058851;28;20211;-85
2023/02/11 06:41:10;;;;;;;46.03;26.67;;;6.20;99.90;;;;;;5052651;28;20575;-86
2023/02/11 06:43:37;;;;;;;46.37;26.40;;;6.20;99.90;;;;;;5053040;28;20252;-84
2023/02/11 06:46:04;;;;;;;47.23;25.87;;;6.20;99.90;;;;;;5055894;28;20267;-83
2023/02/11 06:48:31;;;;;;;42.07;25.03;;;6.20;99.90;;;;;;5055970;28;20211;-83
2023/02/11 06:51:02;;;;;;;53.60;29.07;;;6.20;99.90;;;;;;5058358;28;20265;-83
2023/02/11 06:53:29;;;;;;;47.07;26.77;;;6.20;99.90;;;;;;5051663;28;20199;-84
2023/02/11 06:56:02;;;;;;;43.03;26.83;;;6.30;99.90;;;;;;5050131;28;20290;-83
2023/02/11 06:58:29;;;;;;;49.00;27.37;;;6.30;99.90;;;;;;5054145;28;20238;-84
2023/02/11 07:00:56;;;;;;;48.23;26.93;;;6.30;99.90;;;;;;5056071;28;20592;-85
2023/02/11 07:03:23;;;;;;;47.77;26.07;;;6.30;99.90;;;;;;5055477;28;20318;-84
2023/02/11 07:05:50;;;;;;;45.80;26.40;;;6.30;99.90;;;;;;5055270;28;20631;-84
2023/02/11 07:08:17;;;;;;;49.20;28.00;;;6.30;99.90;;;;;;5054479;28;20205;-84
2023/02/11 07:10:44;;;;;;;50.77;27.67;;;6.30;99.90;;;;;;5054141;28;20207;-84
2023/02/11 07:13:12;;;;;;;48.67;26.90;;;6.30;99.90;;;;;;5049434;28;20576;-84
2023/02/11 07:15:39;;;;;;;46.23;25.93;;;6.30;99.90;;;;;;5051904;28;20223;-84
2023/02/11 07:18:06;;;;;;;44.90;27.00;;;6.40;99.90;;;;;;5056887;28;20904;-85
2023/02/11 07:20:33;;;;;;;45.07;27.50;;;6.40;99.90;;;;;;5055079;28;20214;-85
2023/02/11 07:22:59;;;;;;;49.10;27.60;;;6.40;99.90;;;;;;5052557;28;20317;-81
2023/02/11 07:25:26;;;;;;;47.77;27.27;;;6.40;99.90;;;;;;5057051;28;20218;-81
2023/02/11 07:27:53;;;;;;;46.00;26.03;;;6.40;99.90;;;;;;5057729;28;20298;-81
2023/02/11 07:30:21;;;;;;;49.23;26.43;;;6.40;99.90;;;;;;5055028;28;20205;-81
2023/02/11 07:32:48;;;;;;;49.47;28.50;;;6.40;99.90;;;;;;5055440;28;20222;-81
2023/02/11 07:35:15;;;;;;;51.33;31.07;;;6.40;99.90;;;;;;5051857;28;20931;-81
2023/02/11 07:37:42;;;;;;;45.77;26.87;;;6.40;99.90;;;;;;5055838;28;20213;-82
2023/02/11 07:40:10;;;;;;;46.17;28.13;;;6.50;99.90;;;;;;5058139;28;20201;-81
2023/02/11 07:42:39;;;;;;;47.23;26.13;;;6.50;99.90;;;;;;5055050;28;20218;-81
2023/02/11 07:45:06;;;;;;;42.20;25.40;;;6.50;99.90;;;;;;5054608;28;20195;-82
2023/02/11 07:47:36;;;;;;;44.53;26.80;;;6.50;99.90;;;;;;5049997;28;20207;-81
2023/02/11 07:50:02;;;;;;;45.87;27.43;;;6.50;99.90;;;;;;5052135;28;20619;-81
2023/02/11 07:52:29;;;;;;;47.20;26.80;;;6.60;99.90;;;;;;5051532;28;20219;-82
2023/02/11 07:54:56;;;;;;;52.83;27.93;;;6.60;99.90;;;;;;5055447;28;20316;-82
2023/02/11 07:57:23;;;;;;;50.77;26.40;;;6.60;99.90;;;;;;5059926;28;20653;-83
2023/02/11 07:59:50;;;;;;;50.40;26.73;;;6.60;99.90;;;;;;5052964;28;20195;-83
2023/02/11 08:02:17;;;;;;;46.77;26.63;;;6.60;99.90;;;;;;5053124;28;20222;-83
2023/02/11 08:04:47;;;;;;;58.17;28.00;;;6.60;99.90;;;;;;5047128;28;20214;-80
2023/02/11 08:07:15;;;;;;;48.83;26.27;;;6.70;99.90;;;;;;5053126;28;20199;-80
2023/02/11 08:09:42;;;;;;;47.70;25.50;;;6.60;99.90;;;;;;5053167;28;20317;-80
2023/02/11 08:12:09;;;;;;;49.40;27.50;;;6.70;99.90;;;;;;5053460;28;20223;-80
2023/02/11 08:14:36;;;;;;;47.83;27.90;;;6.70;99.90;;;;;;5049532;28;20206;-80
2023/02/11 08:17:03;;;;;;;51.37;28.53;;;6.70;99.90;;;;;;5053341;28;20211;-81
2023/02/11 08:19:30;;;;;;;47.90;26.87;;;6.70;99.90;;;;;;5055230;28;20194;-81
2023/02/11 08:21:59;;;;;;;47.97;27.50;;;6.80;99.90;;;;;;5054926;28;20219;-81
2023/02/11 08:24:26;;;;;;;46.63;25.97;;;6.80;99.90;;;;;;5055622;28;20225;-83
2023/02/11 08:26:53;;;;;;;46.40;25.60;;;6.80;99.90;;;;;;5055615;28;20195;-82
2023/02/11 08:29:20;;;;;;;43.07;26.93;;;6.80;99.90;;;;;;5050025;28;20199;-81
2023/02/11 08:31:47;;;;;;;45.43;26.50;;;6.80;99.90;;;;;;5053047;28;20247;-81
2023/02/11 08:34:17;;;;;;;41.90;25.67;;;6.80;99.90;;;;;;5053478;28;20199;-81
2023/02/11 08:36:45;;;;;;;49.50;27.17;;;6.90;99.90;;;;;;5053682;28;20222;-79
2023/02/11 08:39:16;;;;;;;48.90;26.87;;;6.90;99.90;;;;;;5049086;28;20563;-79
2023/02/11 08:41:43;;;;;;;45.27;26.73;;;6.90;99.90;;;;;;5050849;28;20597;-79
2023/02/11 08:44:11;;;;;;;44.80;25.77;;;6.90;99.90;;;;;;5054064;28;20669;-79
2023/02/11 08:46:37;;;;;;;48.17;25.27;;;6.90;99.90;;;;;;5047249;28;20213;-80
2023/02/11 08:49:05;;;;;;;44.90;25.57;;;7.00;99.90;;;;;;5046463;28;20195;-80
2023/02/11 08:51:32;;;;;;;43.07;26.83;;;7.00;99.90;;;;;;5049864;28;20653;-80
2023/02/11 08:54:00;;;;;;;42.10;24.80;;;7.00;99.90;;;;;;5050535;28;20564;-80
2023/02/11 08:56:30;;;;;;;44.00;25.63;;;7.00;99.90;;;;;;5045788;28;20219;-79
2023/02/11 08:58:57;;;;;;;45.77;27.27;;;7.00;99.90;;;;;;5049304;28;20293;-79
2023/02/11 09:01:25;;;;;;;41.37;25.63;;;7.00;99.90;;;;;;5045302;28;20242;-79
2023/02/11 09:03:52;;;;;;;51.50;27.77;;;7.00;99.90;;;;;;5049777;28;20206;-79
2023/02/11 09:06:21;;;;;;;43.50;26.30;;;7.00;99.90;;;;;;5049899;28;20200;-81
2023/02/11 09:08:51;;;;;;;44.20;25.87;;;7.00;99.90;;;;;;5052077;28;20199;-80
2023/02/11 09:11:20;;;;;;;47.33;26.33;;;7.00;99.90;;;;;;5059412;28;20202;-80
2023/02/11 09:13:48;;;;;;;43.33;27.87;;;7.00;99.90;;;;;;5053504;28;20258;-80
2023/02/11 09:16:18;;;;;;;46.00;25.90;;;7.00;99.90;;;;;;5052359;28;20230;-80
2023/02/11 09:18:45;;;;;;;49.70;27.13;;;7.00;99.90;;;;;;5053795;28;20199;-80
2023/02/11 09:21:12;;;;;;;44.27;26.17;;;7.10;99.90;;;;;;5055826;28;20294;-80
2023/02/11 09:23:42;;;;;;;45.93;25.53;;;7.10;99.90;;;;;;5054959;28;20913;-79
2023/02/11 09:26:12;;;;;;;43.47;25.80;;;7.10;99.90;;;;;;5059541;28;20218;-80
2023/02/11 09:28:38;;;;;;;47.97;26.20;;;7.20;99.90;;;;;;5063433;28;20210;-79
2023/02/11 09:31:08;;;;;;;43.53;25.53;;;7.20;99.90;;;;;;5057575;28;20293;-80
2023/02/11 09:33:35;;;;;;;46.13;26.20;;;7.30;99.90;;;;;;5049429;28;20203;-79
2023/02/11 09:36:03;;;;;;;48.60;26.20;;;7.30;99.90;;;;;;5067474;28;20219;-81
2023/02/11 09:38:30;;;;;;;43.47;25.37;;;7.40;99.90;;;;;;5059420;28;20203;-80
2023/02/11 09:40:57;;;;;;;48.13;27.23;;;7.40;99.90;;;;;;5059188;28;20544;-80
2023/02/11 09:43:31;;;;;;;41.30;23.23;;;7.40;99.90;;;;;;5056799;28;20227;-79
2023/02/11 09:45:58;;;;;;;43.47;23.90;;;7.40;99.90;;;;;;5058212;28;20667;-79
2023/02/11 09:48:26;;;;;;;46.77;25.77;;;7.40;99.90;;;;;;5061721;28;20214;-83
2023/02/11 09:50:55;;;;;;;41.77;25.43;;;7.50;99.90;;;;;;5055580;28;20737;-81
2023/02/11 09:53:24;;;;;;;45.70;26.30;;;7.60;99.90;;;;;;5054145;28;20695;-81
2023/02/11 09:55:55;;;;;;;47.67;25.00;;;7.60;99.90;;;;;;5049381;28;20242;-81
2023/02/11 09:58:26;;;;;;;39.80;22.90;;;7.70;99.90;;;;;;5052062;28;20195;-81
2023/02/11 10:01:01;;;;;;;44.57;25.73;;;7.70;99.90;;;;;;5050232;28;20211;-81
2023/02/11 10:03:58;;;;;;;44.77;25.57;;;7.70;99.90;;;;;;5056383;28;20213;-81
2023/02/11 10:06:36;;;;;;;40.50;23.90;;;7.60;99.90;;;;;;5053468;28;20203;-81
2023/02/11 10:09:25;;;;;;;39.80;23.40;;;7.60;99.90;;;;;;5053537;28;20195;-80
2023/02/11 10:11:59;;;;;;;44.30;25.97;;;7.70;99.90;;;;;;5047060;28;20237;-80
2023/02/11 10:14:47;;;;;;;41.03;23.73;;;7.80;99.90;;;;;;5053917;28;20510;-81
2023/02/11 10:17:23;;;;;;;39.90;22.73;;;7.70;99.90;;;;;;5047150;28;20556;-81
2023/02/11 10:20:04;;;;;;;42.13;22.80;;;7.70;99.90;;;;;;5056239;28;20285;-80
2023/02/11 10:22:35;;;;;;;39.53;22.23;;;7.70;99.90;;;;;;5053959;28;20225;-82
2023/02/11 10:25:19;;;;;;;43.13;25.37;;;7.70;99.90;;;;;;5052180;28;20236;-81
2023/02/11 10:27:46;;;;;;;43.30;25.27;;;7.70;99.90;;;;;;5055364;28;20206;-81
2023/02/11 10:30:20;;;;;;;41.57;25.53;;;7.70;99.90;;;;;;5055611;28;20274;-81
2023/02/11 10:32:52;;;;;;;42.70;25.57;;;7.70;99.90;;;;;;5054470;28;20228;-82
2023/02/11 10:35:22;;;;;;;39.23;23.63;;;7.70;99.90;;;;;;5054780;28;20199;-82
2023/02/11 10:37:50;;;;;;;39.40;23.60;;;7.70;99.90;;;;;;5061929;28;20234;-81
2023/02/11 10:40:19;;;;;;;43.20;25.07;;;7.70;99.90;;;;;;5048146;28;20206;-81
2023/02/11 10:42:49;;;;;;;45.47;27.10;;;7.80;99.90;;;;;;5064253;28;20292;-80
2023/02/11 10:45:22;;;;;;;40.17;22.67;;;7.80;99.90;;;;;;5051033;28;20204;-80
2023/02/11 10:47:49;;;;;;;44.33;24.03;;;7.80;99.90;;;;;;5052061;28;20278;-80
2023/02/11 10:50:21;;;;;;;43.67;23.80;;;7.80;99.90;;;;;;5055530;28;20624;-80
2023/02/11 10:52:48;;;;;;;42.97;24.77;;;7.90;99.90;;;;;;5052861;28;20226;-81
2023/02/11 10:55:19;;;;;;;39.03;23.13;;;7.90;99.90;;;;;;5063326;28;20211;-80
2023/02/11 10:57:55;;;;;;;38.47;21.93;;;7.90;99.90;;;;;;5053688;28;20222;-80
2023/02/11 11:00:36;;;;;;;45.00;24.57;;;7.90;99.90;;;;;;5054253;28;20207;-81
2023/02/11 11:03:05;;;;;;;39.87;23.20;;;7.90;99.90;;;;;;5055482;28;20303;-81
2023/02/11 11:05:37;;;;;;;40.97;24.30;;;7.90;99.90;;;;;;5053067;28;20207;-84
2023/02/11 11:08:07;;;;;;;40.83;22.63;;;7.90;99.90;;;;;;5053867;28;20703;-83
2023/02/11 11:10:42;;;;;;;43.77;23.30;;;7.80;99.90;;;;;;5053134;28;20199;-83
2023/02/11 11:13:27;;;;;;;37.80;22.77;;;7.90;99.90;;;;;;5048797;28;20221;-84
2023/02/11 11:16:22;;;;;;;40.70;22.23;;;7.90;99.90;;;;;;5049583;28;20278;-83
2023/02/11 11:18:51;;;;;;;38.13;22.23;;;7.90;99.90;;;;;;5049843;28;20294;-82
2023/02/11 11:21:24;;;;;;;35.93;21.83;;;7.90;99.90;;;;;;5055907;28;20266;-85
2023/02/11 11:23:55;;;;;;;36.97;21.23;;;7.90;99.90;;;;;;5051717;28;20241;-82
2023/02/11 11:26:23;;;;;;;34.67;20.83;;;7.90;99.90;;;;;;5052913;28;20209;-82
2023/02/11 11:29:07;;;;;;;36.57;19.93;;;7.90;99.90;;;;;;5052107;28;20204;-83
2023/02/11 11:31:36;;;;;;;34.83;21.07;;;8.00;99.90;;;;;;5049585;28;20285;-82
2023/02/11 11:34:22;;;;;;;33.27;19.47;;;8.00;99.90;;;;;;5056206;28;20210;-83
2023/02/11 11:36:51;;;;;;;34.87;19.13;;;8.00;99.90;;;;;;5045847;28;20222;-83
2023/02/11 11:39:22;;;;;;;35.97;21.10;;;8.00;99.90;;;;;;5052641;28;20198;-80
2023/02/11 11:41:51;;;;;;;32.67;19.30;;;8.00;99.90;;;;;;5052795;28;20219;-80
2023/02/11 11:44:25;;;;;;;32.63;19.63;;;8.00;99.90;;;;;;5054729;28;20203;-80
2023/02/11 11:47:06;;;;;;;32.93;19.47;;;7.90;99.90;;;;;;5054467;28;20194;-80
2023/02/11 11:49:37;;;;;;;34.37;20.13;;;7.90;99.90;;;;;;5051358;28;20215;-81
2023/02/11 11:52:16;;;;;;;35.00;19.93;;;7.90;99.90;;;;;;5061506;28;20223;-82
2023/02/11 11:54:46;;;;;;;34.67;21.13;;;7.80;99.90;;;;;;5058511;28;20290;-83
2023/02/11 11:57:17;;;;;;;32.70;20.07;;;7.80;99.90;;;;;;5054751;28;20213;-82
2023/02/11 11:59:45;;;;;;;36.03;20.47;;;7.80;99.90;;;;;;5052015;28;20207;-83
2023/02/11 12:02:54;;;;;;;35.50;20.50;;;7.70;99.90;;;;;;5055760;28;20223;-83
2023/02/11 12:05:27;;;;;;;31.47;18.73;;;7.80;99.90;;;;;;5033203;28;20708;-83
2023/02/11 12:08:08;;;;;;;32.77;20.00;;;7.80;99.90;;;;;;5048594;28;20659;-83
2023/02/11 12:10:48;;;;;;;37.03;20.23;;;7.90;99.90;;;;;;5050770;28;20198;-84
2023/02/11 12:13:28;;;;;;;33.97;19.67;;;7.90;99.90;;;;;;5047594;28;20225;-83
2023/02/11 12:16:03;;;;;;;32.90;19.67;;;7.90;99.90;;;;;;5044319;28;20198;-82
2023/02/11 12:19:09;;;;;;;32.77;19.87;;;7.90;99.90;;;;;;5050883;28;20249;-82
2023/02/11 12:21:48;;;;;;;32.93;18.83;;;8.00;99.90;;;;;;5051903;28;20227;-81
2023/02/11 12:24:31;;;;;;;34.00;20.03;;;8.00;99.90;;;;;;5046625;28;20224;-82
2023/02/11 12:27:02;;;;;;;34.00;19.07;;;8.00;99.90;;;;;;5051270;28;20248;-82
2023/02/11 12:29:37;;;;;;;33.97;18.43;;;7.90;99.90;;;;;;5048986;28;20209;-83
2023/02/11 12:32:14;;;;;;;34.03;19.23;;;7.80;99.90;;;;;;5050269;28;20222;-82
2023/02/11 12:34:55;;;;;;;31.43;18.67;;;7.90;99.90;;;;;;5051756;28;20206;-83
2023/02/11 12:37:34;;;;;;;30.60;18.53;;;7.90;99.90;;;;;;5046007;28;20226;-83
2023/02/11 12:40:13;;;;;;;34.80;19.53;;;7.90;99.90;;;;;;5048612;28;20536;-83
2023/02/11 12:43:16;;;;;;;32.63;18.07;;;7.90;99.90;;;;;;5053123;28;20237;-82
2023/02/11 12:46:01;;;;;;;31.47;17.53;;;7.90;99.90;;;;;;5055455;28;20221;-83
2023/02/11 12:48:50;;;;;;;28.90;17.67;;;7.90;99.90;;;;;;5050652;28;20207;-82
2023/02/11 12:51:24;;;;;;;32.23;18.70;;;7.90;99.90;;;;;;5052921;28;20203;-82
2023/02/11 12:54:10;;;;;;;33.50;19.83;;;7.90;99.90;;;;;;5048321;28;20696;-82
2023/02/11 12:56:46;;;;;;;30.90;19.23;;;7.90;99.90;;;;;;5051093;28;20191;-82